sensor_id;sensor_type;location;lat;lon;timestamp;P1;durP1;ratioP1;P2;durP2;ratioP2
59734;SDS011;64362;45.620;4.920;2023-06-22T00:01:31;9.10;;;5.80;;
59734;SDS011;64362;45.620;4.920;2023-06-22T00:04:03;15.90;;;6.03;;
59734;SDS011;64362;45.620;4.920;2023-06-22T00:06:29;11.32;;;6.20;;
59734;SDS011;64362;45.620;4.920;2023-06-22T00:09:00;12.98;;;6.50;;
59734;SDS011;64362;45.620;4.920;2023-06-22T00:11:26;15.48;;;6.50;;
59734;SDS011;64362;45.620;4.920;2023-06-22T00:13:59;12.70;;;6.95;;
59734;SDS011;64362;45.620;4.920;2023-06-22T00:16:25;12.45;;;6.07;;
59734;SDS011;64362;45.620;4.920;2023-06-22T00:18:57;15.07;;;6.70;;
59734;SDS011;64362;45.620;4.920;2023-06-22T00:21:32;16.02;;;7.00;;
59734;SDS011;64362;45.620;4.920;2023-06-22T00:23:58;12.45;;;5.90;;
59734;SDS011;64362;45.620;4.920;2023-06-22T00:26:29;11.13;;;6.40;;
59734;SDS011;64362;45.620;4.920;2023-06-22T00:28:55;10.20;;;5.90;;
59734;SDS011;64362;45.620;4.920;2023-06-22T00:31:28;11.20;;;5.65;;
59734;SDS011;64362;45.620;4.920;2023-06-22T00:34:00;14.68;;;6.68;;
59734;SDS011;64362;45.620;4.920;2023-06-22T00:36:26;10.23;;;6.43;;
59734;SDS011;64362;45.620;4.920;2023-06-22T00:38:57;11.45;;;6.25;;
59734;SDS011;64362;45.620;4.920;2023-06-22T00:41:29;9.40;;;5.85;;
59734;SDS011;64362;45.620;4.920;2023-06-22T00:44:03;13.27;;;6.63;;
59734;SDS011;64362;45.620;4.920;2023-06-22T00:46:30;9.80;;;6.45;;
59734;SDS011;64362;45.620;4.920;2023-06-22T00:49:01;12.25;;;7.10;;
59734;SDS011;64362;45.620;4.920;2023-06-22T00:51:47;12.52;;;6.53;;
59734;SDS011;64362;45.620;4.920;2023-06-22T00:54:20;12.15;;;6.30;;
59734;SDS011;64362;45.620;4.920;2023-06-22T00:56:55;11.75;;;6.55;;
59734;SDS011;64362;45.620;4.920;2023-06-22T00:59:28;14.80;;;7.10;;
59734;SDS011;64362;45.620;4.920;2023-06-22T01:01:54;17.60;;;7.22;;
59734;SDS011;64362;45.620;4.920;2023-06-22T01:04:34;13.77;;;7.35;;
59734;SDS011;64362;45.620;4.920;2023-06-22T01:10:16;11.95;;;7.07;;
59734;SDS011;64362;45.620;4.920;2023-06-22T01:16:11;11.35;;;7.55;;
59734;SDS011;64362;45.620;4.920;2023-06-22T01:18:48;14.40;;;7.00;;
59734;SDS011;64362;45.620;4.920;2023-06-22T01:21:17;16.40;;;7.35;;
59734;SDS011;64362;45.620;4.920;2023-06-22T01:26:42;14.35;;;7.05;;
59734;SDS011;64362;45.620;4.920;2023-06-22T01:29:39;12.82;;;7.28;;
59734;SDS011;64362;45.620;4.920;2023-06-22T01:32:12;13.13;;;7.00;;
59734;SDS011;64362;45.620;4.920;2023-06-22T01:34:38;13.93;;;7.05;;
59734;SDS011;64362;45.620;4.920;2023-06-22T01:37:12;13.60;;;7.28;;
59734;SDS011;64362;45.620;4.920;2023-06-22T01:39:38;13.18;;;6.85;;
59734;SDS011;64362;45.620;4.920;2023-06-22T01:42:10;14.32;;;6.75;;
59734;SDS011;64362;45.620;4.920;2023-06-22T01:44:35;12.88;;;7.55;;
59734;SDS011;64362;45.620;4.920;2023-06-22T01:47:08;14.95;;;7.10;;
59734;SDS011;64362;45.620;4.920;2023-06-22T01:49:42;17.95;;;7.03;;
59734;SDS011;64362;45.620;4.920;2023-06-22T01:52:14;13.30;;;7.13;;
59734;SDS011;64362;45.620;4.920;2023-06-22T01:54:55;13.77;;;7.38;;
59734;SDS011;64362;45.620;4.920;2023-06-22T01:57:23;15.70;;;7.40;;
59734;SDS011;64362;45.620;4.920;2023-06-22T02:00:02;14.77;;;7.93;;
59734;SDS011;64362;45.620;4.920;2023-06-22T02:02:44;11.98;;;7.30;;
59734;SDS011;64362;45.620;4.920;2023-06-22T02:05:22;14.48;;;7.32;;
59734;SDS011;64362;45.620;4.920;2023-06-22T02:08:04;13.45;;;6.75;;
59734;SDS011;64362;45.620;4.920;2023-06-22T02:10:39;18.85;;;7.75;;
59734;SDS011;64362;45.620;4.920;2023-06-22T02:13:13;12.20;;;7.33;;
59734;SDS011;64362;45.620;4.920;2023-06-22T02:15:39;14.43;;;7.53;;
59734;SDS011;64362;45.620;4.920;2023-06-22T02:18:12;15.65;;;8.10;;
59734;SDS011;64362;45.620;4.920;2023-06-22T02:20:44;16.00;;;7.70;;
59734;SDS011;64362;45.620;4.920;2023-06-22T02:23:09;17.33;;;7.43;;
59734;SDS011;64362;45.620;4.920;2023-06-22T02:25:48;13.35;;;7.78;;
59734;SDS011;64362;45.620;4.920;2023-06-22T02:30:55;14.07;;;7.45;;
59734;SDS011;64362;45.620;4.920;2023-06-22T02:33:27;13.38;;;7.15;;
59734;SDS011;64362;45.620;4.920;2023-06-22T02:35:52;17.98;;;7.35;;
59734;SDS011;64362;45.620;4.920;2023-06-22T02:38:25;12.23;;;7.13;;
59734;SDS011;64362;45.620;4.920;2023-06-22T02:40:51;16.52;;;7.80;;
59734;SDS011;64362;45.620;4.920;2023-06-22T02:43:23;18.00;;;7.95;;
59734;SDS011;64362;45.620;4.920;2023-06-22T02:45:49;12.98;;;7.68;;
59734;SDS011;64362;45.620;4.920;2023-06-22T02:48:21;15.43;;;7.80;;
59734;SDS011;64362;45.620;4.920;2023-06-22T02:51:00;11.40;;;6.90;;
59734;SDS011;64362;45.620;4.920;2023-06-22T02:53:33;11.90;;;7.53;;
59734;SDS011;64362;45.620;4.920;2023-06-22T02:56:05;13.20;;;7.50;;
59734;SDS011;64362;45.620;4.920;2023-06-22T02:58:33;11.77;;;7.03;;
59734;SDS011;64362;45.620;4.920;2023-06-22T03:01:11;11.10;;;7.22;;
59734;SDS011;64362;45.620;4.920;2023-06-22T03:03:39;13.55;;;7.28;;
59734;SDS011;64362;45.620;4.920;2023-06-22T03:06:11;12.93;;;6.95;;
59734;SDS011;64362;45.620;4.920;2023-06-22T03:08:45;10.93;;;7.10;;
59734;SDS011;64362;45.620;4.920;2023-06-22T03:11:10;11.32;;;7.50;;
59734;SDS011;64362;45.620;4.920;2023-06-22T03:13:43;11.80;;;7.40;;
59734;SDS011;64362;45.620;4.920;2023-06-22T03:16:10;14.15;;;7.53;;
59734;SDS011;64362;45.620;4.920;2023-06-22T03:18:42;14.65;;;7.80;;
59734;SDS011;64362;45.620;4.920;2023-06-22T03:21:14;16.35;;;8.02;;
59734;SDS011;64362;45.620;4.920;2023-06-22T03:23:40;9.02;;;7.55;;
59734;SDS011;64362;45.620;4.920;2023-06-22T03:26:15;10.70;;;6.93;;
59734;SDS011;64362;45.620;4.920;2023-06-22T03:28:42;13.52;;;7.03;;
59734;SDS011;64362;45.620;4.920;2023-06-22T03:31:14;15.88;;;7.32;;
59734;SDS011;64362;45.620;4.920;2023-06-22T03:33:46;15.85;;;7.65;;
59734;SDS011;64362;45.620;4.920;2023-06-22T03:36:18;12.60;;;7.40;;
59734;SDS011;64362;45.620;4.920;2023-06-22T03:38:47;12.65;;;7.20;;
59734;SDS011;64362;45.620;4.920;2023-06-22T03:41:20;11.93;;;7.03;;
59734;SDS011;64362;45.620;4.920;2023-06-22T03:43:52;13.23;;;7.20;;
59734;SDS011;64362;45.620;4.920;2023-06-22T03:46:24;14.57;;;6.90;;
59734;SDS011;64362;45.620;4.920;2023-06-22T03:48:51;11.40;;;7.22;;
59734;SDS011;64362;45.620;4.920;2023-06-22T03:51:23;14.15;;;7.10;;
59734;SDS011;64362;45.620;4.920;2023-06-22T03:54:02;12.25;;;7.45;;
59734;SDS011;64362;45.620;4.920;2023-06-22T03:56:34;13.82;;;7.63;;
59734;SDS011;64362;45.620;4.920;2023-06-22T03:59:06;10.82;;;7.63;;
59734;SDS011;64362;45.620;4.920;2023-06-22T04:01:38;12.15;;;7.55;;
59734;SDS011;64362;45.620;4.920;2023-06-22T04:04:10;15.45;;;7.72;;
59734;SDS011;64362;45.620;4.920;2023-06-22T04:06:35;13.68;;;7.28;;
59734;SDS011;64362;45.620;4.920;2023-06-22T04:09:07;13.70;;;8.10;;
59734;SDS011;64362;45.620;4.920;2023-06-22T04:11:32;11.82;;;7.85;;
59734;SDS011;64362;45.620;4.920;2023-06-22T04:14:04;14.43;;;8.13;;
59734;SDS011;64362;45.620;4.920;2023-06-22T04:16:29;16.67;;;9.32;;
59734;SDS011;64362;45.620;4.920;2023-06-22T04:19:01;17.90;;;9.15;;
59734;SDS011;64362;45.620;4.920;2023-06-22T04:21:27;13.75;;;8.90;;
59734;SDS011;64362;45.620;4.920;2023-06-22T04:23:58;16.20;;;9.50;;
59734;SDS011;64362;45.620;4.920;2023-06-22T04:26:24;13.95;;;8.93;;
59734;SDS011;64362;45.620;4.920;2023-06-22T04:28:55;17.25;;;9.48;;
59734;SDS011;64362;45.620;4.920;2023-06-22T04:31:27;14.05;;;8.90;;
59734;SDS011;64362;45.620;4.920;2023-06-22T04:34:03;16.77;;;9.80;;
59734;SDS011;64362;45.620;4.920;2023-06-22T04:36:40;17.83;;;9.10;;
59734;SDS011;64362;45.620;4.920;2023-06-22T04:39:06;17.23;;;9.18;;
59734;SDS011;64362;45.620;4.920;2023-06-22T04:41:40;14.38;;;8.85;;
59734;SDS011;64362;45.620;4.920;2023-06-22T04:44:12;17.15;;;9.05;;
59734;SDS011;64362;45.620;4.920;2023-06-22T04:46:44;16.70;;;7.57;;
59734;SDS011;64362;45.620;4.920;2023-06-22T04:49:10;15.27;;;8.52;;
59734;SDS011;64362;45.620;4.920;2023-06-22T04:51:41;14.80;;;8.85;;
59734;SDS011;64362;45.620;4.920;2023-06-22T04:54:23;13.07;;;8.48;;
59734;SDS011;64362;45.620;4.920;2023-06-22T04:56:49;16.33;;;8.25;;
59734;SDS011;64362;45.620;4.920;2023-06-22T04:59:29;12.98;;;8.15;;
59734;SDS011;64362;45.620;4.920;2023-06-22T05:02:01;13.45;;;7.78;;
59734;SDS011;64362;45.620;4.920;2023-06-22T05:04:28;14.13;;;8.73;;
59734;SDS011;64362;45.620;4.920;2023-06-22T05:07:02;10.65;;;7.50;;
59734;SDS011;64362;45.620;4.920;2023-06-22T05:09:34;14.00;;;7.70;;
59734;SDS011;64362;45.620;4.920;2023-06-22T05:12:06;11.43;;;7.88;;
59734;SDS011;64362;45.620;4.920;2023-06-22T05:14:39;11.38;;;7.47;;
59734;SDS011;64362;45.620;4.920;2023-06-22T05:17:05;13.75;;;7.90;;
59734;SDS011;64362;45.620;4.920;2023-06-22T05:19:44;13.95;;;7.50;;
59734;SDS011;64362;45.620;4.920;2023-06-22T05:22:13;15.32;;;8.52;;
59734;SDS011;64362;45.620;4.920;2023-06-22T05:24:46;14.90;;;8.75;;
59734;SDS011;64362;45.620;4.920;2023-06-22T05:27:12;14.88;;;8.77;;
59734;SDS011;64362;45.620;4.920;2023-06-22T05:29:44;12.82;;;8.32;;
59734;SDS011;64362;45.620;4.920;2023-06-22T05:32:16;12.45;;;7.72;;
59734;SDS011;64362;45.620;4.920;2023-06-22T05:34:42;12.27;;;7.72;;
59734;SDS011;64362;45.620;4.920;2023-06-22T05:37:14;14.02;;;8.23;;
59734;SDS011;64362;45.620;4.920;2023-06-22T05:39:40;13.48;;;8.70;;
59734;SDS011;64362;45.620;4.920;2023-06-22T05:42:11;14.27;;;7.75;;
59734;SDS011;64362;45.620;4.920;2023-06-22T05:44:37;17.83;;;8.60;;
59734;SDS011;64362;45.620;4.920;2023-06-22T05:47:10;12.98;;;7.68;;
59734;SDS011;64362;45.620;4.920;2023-06-22T05:49:49;14.48;;;8.20;;
59734;SDS011;64362;45.620;4.920;2023-06-22T05:52:21;14.30;;;7.80;;
59734;SDS011;64362;45.620;4.920;2023-06-22T05:54:47;15.02;;;8.25;;
59734;SDS011;64362;45.620;4.920;2023-06-22T05:57:18;12.43;;;7.95;;
59734;SDS011;64362;45.620;4.920;2023-06-22T05:59:50;13.52;;;8.52;;
59734;SDS011;64362;45.620;4.920;2023-06-22T06:02:16;14.55;;;8.52;;
59734;SDS011;64362;45.620;4.920;2023-06-22T06:04:48;17.25;;;12.30;;
59734;SDS011;64362;45.620;4.920;2023-06-22T06:07:22;15.80;;;9.48;;
59734;SDS011;64362;45.620;4.920;2023-06-22T06:09:48;14.30;;;9.30;;
59734;SDS011;64362;45.620;4.920;2023-06-22T06:12:19;17.23;;;9.18;;
59734;SDS011;64362;45.620;4.920;2023-06-22T06:14:51;17.13;;;9.18;;
59734;SDS011;64362;45.620;4.920;2023-06-22T06:17:18;11.40;;;7.60;;
59734;SDS011;64362;45.620;4.920;2023-06-22T06:19:50;9.77;;;7.68;;
59734;SDS011;64362;45.620;4.920;2023-06-22T06:22:22;10.52;;;8.35;;
59734;SDS011;64362;45.620;4.920;2023-06-22T06:24:48;12.43;;;8.07;;
59734;SDS011;64362;45.620;4.920;2023-06-22T06:27:20;12.63;;;8.45;;
59734;SDS011;64362;45.620;4.920;2023-06-22T06:29:46;12.35;;;7.47;;
59734;SDS011;64362;45.620;4.920;2023-06-22T06:32:19;10.43;;;7.53;;
59734;SDS011;64362;45.620;4.920;2023-06-22T06:34:51;11.32;;;7.28;;
59734;SDS011;64362;45.620;4.920;2023-06-22T06:37:17;10.77;;;7.45;;
59734;SDS011;64362;45.620;4.920;2023-06-22T06:39:49;10.77;;;7.57;;
59734;SDS011;64362;45.620;4.920;2023-06-22T06:42:15;12.00;;;8.00;;
59734;SDS011;64362;45.620;4.920;2023-06-22T06:44:46;11.43;;;7.95;;
59734;SDS011;64362;45.620;4.920;2023-06-22T06:47:18;12.55;;;8.45;;
59734;SDS011;64362;45.620;4.920;2023-06-22T06:49:50;16.42;;;8.32;;
59734;SDS011;64362;45.620;4.920;2023-06-22T06:52:22;13.95;;;9.02;;
59734;SDS011;64362;45.620;4.920;2023-06-22T06:54:48;13.18;;;8.20;;
59734;SDS011;64362;45.620;4.920;2023-06-22T06:57:20;13.27;;;8.25;;
59734;SDS011;64362;45.620;4.920;2023-06-22T06:59:45;11.85;;;7.70;;
59734;SDS011;64362;45.620;4.920;2023-06-22T07:02:17;15.63;;;8.32;;
59734;SDS011;64362;45.620;4.920;2023-06-22T07:04:44;11.15;;;9.05;;
59734;SDS011;64362;45.620;4.920;2023-06-22T07:07:16;13.32;;;8.10;;
59734;SDS011;64362;45.620;4.920;2023-06-22T07:09:48;12.38;;;8.40;;
59734;SDS011;64362;45.620;4.920;2023-06-22T07:12:20;10.88;;;7.63;;
59734;SDS011;64362;45.620;4.920;2023-06-22T07:14:53;11.05;;;7.60;;
59734;SDS011;64362;45.620;4.920;2023-06-22T07:17:18;13.68;;;8.02;;
59734;SDS011;64362;45.620;4.920;2023-06-22T07:19:51;12.50;;;8.27;;
59734;SDS011;64362;45.620;4.920;2023-06-22T07:22:23;10.85;;;8.20;;
59734;SDS011;64362;45.620;4.920;2023-06-22T07:24:48;11.40;;;7.78;;
59734;SDS011;64362;45.620;4.920;2023-06-22T07:27:21;12.27;;;8.43;;
59734;SDS011;64362;45.620;4.920;2023-06-22T07:29:46;13.55;;;8.07;;
59734;SDS011;64362;45.620;4.920;2023-06-22T07:32:19;12.43;;;8.20;;
59734;SDS011;64362;45.620;4.920;2023-06-22T07:34:51;11.90;;;8.10;;
59734;SDS011;64362;45.620;4.920;2023-06-22T07:37:16;15.00;;;8.88;;
59734;SDS011;64362;45.620;4.920;2023-06-22T07:39:48;15.98;;;9.32;;
59734;SDS011;64362;45.620;4.920;2023-06-22T07:42:22;13.32;;;8.27;;
59734;SDS011;64362;45.620;4.920;2023-06-22T07:44:47;12.15;;;8.05;;
59734;SDS011;64362;45.620;4.920;2023-06-22T07:47:19;14.70;;;8.27;;
59734;SDS011;64362;45.620;4.920;2023-06-22T07:49:44;12.85;;;8.63;;
59734;SDS011;64362;45.620;4.920;2023-06-22T07:52:17;16.23;;;8.13;;
59734;SDS011;64362;45.620;4.920;2023-06-22T07:54:42;12.68;;;8.15;;
59734;SDS011;64362;45.620;4.920;2023-06-22T07:57:14;11.68;;;7.72;;
59734;SDS011;64362;45.620;4.920;2023-06-22T07:59:39;11.63;;;8.50;;
59734;SDS011;64362;45.620;4.920;2023-06-22T08:02:11;12.45;;;8.52;;
59734;SDS011;64362;45.620;4.920;2023-06-22T08:04:37;13.98;;;8.50;;
59734;SDS011;64362;45.620;4.920;2023-06-22T08:07:09;14.43;;;8.63;;
59734;SDS011;64362;45.620;4.920;2023-06-22T08:09:35;15.27;;;9.25;;
59734;SDS011;64362;45.620;4.920;2023-06-22T08:12:07;14.15;;;7.88;;
59734;SDS011;64362;45.620;4.920;2023-06-22T08:14:41;14.38;;;9.05;;
59734;SDS011;64362;45.620;4.920;2023-06-22T08:17:14;13.00;;;8.60;;
59734;SDS011;64362;45.620;4.920;2023-06-22T08:19:39;15.85;;;9.50;;
59734;SDS011;64362;45.620;4.920;2023-06-22T08:22:11;14.57;;;8.93;;
59734;SDS011;64362;45.620;4.920;2023-06-22T08:24:43;14.13;;;8.73;;
59734;SDS011;64362;45.620;4.920;2023-06-22T08:27:09;19.35;;;9.63;;
59734;SDS011;64362;45.620;4.920;2023-06-22T08:29:43;15.85;;;9.90;;
59734;SDS011;64362;45.620;4.920;2023-06-22T08:32:10;15.73;;;9.55;;
59734;SDS011;64362;45.620;4.920;2023-06-22T08:34:43;14.25;;;9.55;;
59734;SDS011;64362;45.620;4.920;2023-06-22T08:37:08;13.20;;;9.75;;
59734;SDS011;64362;45.620;4.920;2023-06-22T08:39:41;15.23;;;9.60;;
59734;SDS011;64362;45.620;4.920;2023-06-22T08:42:07;13.18;;;9.32;;
59734;SDS011;64362;45.620;4.920;2023-06-22T08:44:39;15.65;;;9.93;;
59734;SDS011;64362;45.620;4.920;2023-06-22T08:47:04;14.77;;;10.10;;
59734;SDS011;64362;45.620;4.920;2023-06-22T08:49:37;16.25;;;10.43;;
59734;SDS011;64362;45.620;4.920;2023-06-22T08:52:23;11.88;;;8.48;;
59734;SDS011;64362;45.620;4.920;2023-06-22T08:54:55;14.98;;;9.70;;
59734;SDS011;64362;45.620;4.920;2023-06-22T08:57:27;17.95;;;10.02;;
59734;SDS011;64362;45.620;4.920;2023-06-22T08:59:53;12.70;;;9.80;;
59734;SDS011;64362;45.620;4.920;2023-06-22T09:02:25;18.05;;;10.00;;
59734;SDS011;64362;45.620;4.920;2023-06-22T09:05:03;13.55;;;8.88;;
59734;SDS011;64362;45.620;4.920;2023-06-22T09:07:28;14.88;;;9.20;;
59734;SDS011;64362;45.620;4.920;2023-06-22T09:10:00;14.32;;;8.82;;
59734;SDS011;64362;45.620;4.920;2023-06-22T09:12:32;17.48;;;9.07;;
59734;SDS011;64362;45.620;4.920;2023-06-22T09:15:04;15.95;;;9.43;;
59734;SDS011;64362;45.620;4.920;2023-06-22T09:17:38;15.80;;;9.25;;
59734;SDS011;64362;45.620;4.920;2023-06-22T09:20:04;11.40;;;9.13;;
59734;SDS011;64362;45.620;4.920;2023-06-22T09:22:37;15.43;;;8.80;;
59734;SDS011;64362;45.620;4.920;2023-06-22T09:25:03;14.90;;;9.27;;
59734;SDS011;64362;45.620;4.920;2023-06-22T09:27:36;14.82;;;9.40;;
59734;SDS011;64362;45.620;4.920;2023-06-22T09:30:01;13.30;;;9.43;;
59734;SDS011;64362;45.620;4.920;2023-06-22T09:32:35;20.00;;;9.73;;
59734;SDS011;64362;45.620;4.920;2023-06-22T09:35:07;12.68;;;8.95;;
59734;SDS011;64362;45.620;4.920;2023-06-22T09:37:34;15.82;;;9.27;;
59734;SDS011;64362;45.620;4.920;2023-06-22T09:40:06;17.58;;;9.45;;
59734;SDS011;64362;45.620;4.920;2023-06-22T09:42:35;12.80;;;8.73;;
59734;SDS011;64362;45.620;4.920;2023-06-22T09:45:07;16.85;;;9.45;;
59734;SDS011;64362;45.620;4.920;2023-06-22T09:47:33;17.55;;;9.15;;
59734;SDS011;64362;45.620;4.920;2023-06-22T09:50:05;17.00;;;9.82;;
59734;SDS011;64362;45.620;4.920;2023-06-22T09:52:51;11.23;;;8.35;;
59734;SDS011;64362;45.620;4.920;2023-06-22T09:55:26;14.50;;;9.75;;
59734;SDS011;64362;45.620;4.920;2023-06-22T09:57:58;15.88;;;8.77;;
59734;SDS011;64362;45.620;4.920;2023-06-22T10:00:24;20.73;;;10.13;;
59734;SDS011;64362;45.620;4.920;2023-06-22T10:02:55;17.23;;;10.07;;
59734;SDS011;64362;45.620;4.920;2023-06-22T10:05:21;18.25;;;9.13;;
59734;SDS011;64362;45.620;4.920;2023-06-22T10:07:53;19.38;;;9.68;;
59734;SDS011;64362;45.620;4.920;2023-06-22T10:10:18;19.20;;;9.60;;
59734;SDS011;64362;45.620;4.920;2023-06-22T10:12:56;15.50;;;9.80;;
59734;SDS011;64362;45.620;4.920;2023-06-22T10:15:29;16.10;;;9.43;;
59734;SDS011;64362;45.620;4.920;2023-06-22T10:17:54;13.40;;;9.23;;
59734;SDS011;64362;45.620;4.920;2023-06-22T10:20:26;16.27;;;9.15;;
59734;SDS011;64362;45.620;4.920;2023-06-22T10:22:59;14.18;;;9.32;;
59734;SDS011;64362;45.620;4.920;2023-06-22T10:25:31;15.93;;;9.20;;
59734;SDS011;64362;45.620;4.920;2023-06-22T10:28:03;16.02;;;8.90;;
59734;SDS011;64362;45.620;4.920;2023-06-22T10:30:28;16.48;;;8.32;;
59734;SDS011;64362;45.620;4.920;2023-06-22T10:33:00;16.40;;;8.65;;
59734;SDS011;64362;45.620;4.920;2023-06-22T10:35:26;15.32;;;8.13;;
59734;SDS011;64362;45.620;4.920;2023-06-22T10:37:57;14.05;;;8.40;;
59734;SDS011;64362;45.620;4.920;2023-06-22T10:40:29;16.98;;;8.38;;
59734;SDS011;64362;45.620;4.920;2023-06-22T10:43:01;12.48;;;7.65;;
59734;SDS011;64362;45.620;4.920;2023-06-22T10:45:33;14.00;;;7.65;;
59734;SDS011;64362;45.620;4.920;2023-06-22T10:47:59;15.80;;;6.88;;
59734;SDS011;64362;45.620;4.920;2023-06-22T10:50:30;13.73;;;7.28;;
59734;SDS011;64362;45.620;4.920;2023-06-22T10:53:16;10.70;;;7.80;;
59734;SDS011;64362;45.620;4.920;2023-06-22T10:55:48;14.93;;;6.70;;
59734;SDS011;64362;45.620;4.920;2023-06-22T10:58:14;10.55;;;6.80;;
59734;SDS011;64362;45.620;4.920;2023-06-22T11:00:46;11.32;;;6.07;;
59734;SDS011;64362;45.620;4.920;2023-06-22T11:03:18;10.50;;;5.05;;
59734;SDS011;64362;45.620;4.920;2023-06-22T11:05:50;9.95;;;4.82;;
59734;SDS011;64362;45.620;4.920;2023-06-22T11:08:29;8.52;;;4.65;;
59734;SDS011;64362;45.620;4.920;2023-06-22T11:10:55;11.65;;;4.78;;
59734;SDS011;64362;45.620;4.920;2023-06-22T11:13:26;9.48;;;4.40;;
59734;SDS011;64362;45.620;4.920;2023-06-22T11:15:58;9.40;;;4.80;;
59734;SDS011;64362;45.620;4.920;2023-06-22T11:18:31;8.68;;;4.15;;
59734;SDS011;64362;45.620;4.920;2023-06-22T11:20:58;9.93;;;4.50;;
59734;SDS011;64362;45.620;4.920;2023-06-22T11:23:30;8.88;;;4.50;;
59734;SDS011;64362;45.620;4.920;2023-06-22T11:26:02;10.98;;;4.32;;
59734;SDS011;64362;45.620;4.920;2023-06-22T11:28:28;10.52;;;4.85;;
59734;SDS011;64362;45.620;4.920;2023-06-22T11:30:59;11.13;;;4.15;;
59734;SDS011;64362;45.620;4.920;2023-06-22T11:33:31;7.72;;;4.00;;
59734;SDS011;64362;45.620;4.920;2023-06-22T11:36:03;8.35;;;3.92;;
59734;SDS011;64362;45.620;4.920;2023-06-22T11:38:29;8.35;;;3.88;;
59734;SDS011;64362;45.620;4.920;2023-06-22T11:41:02;8.35;;;3.85;;
59734;SDS011;64362;45.620;4.920;2023-06-22T11:43:28;10.13;;;4.30;;
59734;SDS011;64362;45.620;4.920;2023-06-22T11:49:15;8.35;;;3.88;;
59734;SDS011;64362;45.620;4.920;2023-06-22T11:51:54;6.78;;;4.38;;
59734;SDS011;64362;45.620;4.920;2023-06-22T11:54:26;8.25;;;4.07;;
59734;SDS011;64362;45.620;4.920;2023-06-22T11:56:52;10.02;;;4.60;;
59734;SDS011;64362;45.620;4.920;2023-06-22T11:59:17;8.77;;;3.97;;
59734;SDS011;64362;45.620;4.920;2023-06-22T12:01:43;8.40;;;4.43;;
59734;SDS011;64362;45.620;4.920;2023-06-22T12:04:09;7.82;;;3.70;;
59734;SDS011;64362;45.620;4.920;2023-06-22T12:06:37;5.32;;;3.40;;
59734;SDS011;64362;45.620;4.920;2023-06-22T12:09:03;5.90;;;4.20;;
59734;SDS011;64362;45.620;4.920;2023-06-22T12:11:30;8.60;;;3.60;;
59734;SDS011;64362;45.620;4.920;2023-06-22T12:13:55;7.15;;;3.40;;
59734;SDS011;64362;45.620;4.920;2023-06-22T12:16:21;7.50;;;4.03;;
59734;SDS011;64362;45.620;4.920;2023-06-22T12:18:47;5.90;;;3.72;;
59734;SDS011;64362;45.620;4.920;2023-06-22T12:21:12;6.95;;;4.07;;
59734;SDS011;64362;45.620;4.920;2023-06-22T12:23:38;7.25;;;3.65;;
59734;SDS011;64362;45.620;4.920;2023-06-22T12:26:03;8.63;;;3.97;;
59734;SDS011;64362;45.620;4.920;2023-06-22T12:28:29;9.02;;;4.03;;
59734;SDS011;64362;45.620;4.920;2023-06-22T12:30:54;8.18;;;3.53;;
59734;SDS011;64362;45.620;4.920;2023-06-22T12:33:19;7.53;;;3.83;;
59734;SDS011;64362;45.620;4.920;2023-06-22T12:35:45;7.25;;;3.97;;
59734;SDS011;64362;45.620;4.920;2023-06-22T12:38:11;9.18;;;4.03;;
59734;SDS011;64362;45.620;4.920;2023-06-22T12:40:36;8.00;;;4.20;;
59734;SDS011;64362;45.620;4.920;2023-06-22T12:43:02;5.75;;;3.58;;
59734;SDS011;64362;45.620;4.920;2023-06-22T12:45:29;5.22;;;3.83;;
59734;SDS011;64362;45.620;4.920;2023-06-22T12:47:58;8.13;;;3.50;;
59734;SDS011;64362;45.620;4.920;2023-06-22T12:50:24;7.88;;;3.70;;
59734;SDS011;64362;45.620;4.920;2023-06-22T12:52:50;6.32;;;3.80;;
59734;SDS011;64362;45.620;4.920;2023-06-22T12:55:16;5.80;;;3.65;;
59734;SDS011;64362;45.620;4.920;2023-06-22T12:57:41;7.47;;;3.95;;
59734;SDS011;64362;45.620;4.920;2023-06-22T13:00:07;6.97;;;4.25;;
59734;SDS011;64362;45.620;4.920;2023-06-22T13:02:36;5.78;;;3.88;;
59734;SDS011;64362;45.620;4.920;2023-06-22T13:05:02;5.95;;;3.63;;
59734;SDS011;64362;45.620;4.920;2023-06-22T13:07:28;6.88;;;3.50;;
59734;SDS011;64362;45.620;4.920;2023-06-22T13:09:53;7.55;;;3.67;;
59734;SDS011;64362;45.620;4.920;2023-06-22T13:12:22;6.38;;;3.78;;
59734;SDS011;64362;45.620;4.920;2023-06-22T13:14:47;7.38;;;4.15;;
59734;SDS011;64362;45.620;4.920;2023-06-22T13:17:13;6.60;;;3.67;;
59734;SDS011;64362;45.620;4.920;2023-06-22T13:19:39;7.10;;;3.63;;
59734;SDS011;64362;45.620;4.920;2023-06-22T13:22:05;7.20;;;3.88;;
59734;SDS011;64362;45.620;4.920;2023-06-22T13:24:30;5.32;;;3.33;;
59734;SDS011;64362;45.620;4.920;2023-06-22T13:26:56;8.30;;;4.13;;
59734;SDS011;64362;45.620;4.920;2023-06-22T13:29:21;7.32;;;4.00;;
59734;SDS011;64362;45.620;4.920;2023-06-22T13:31:47;7.22;;;3.70;;
59734;SDS011;64362;45.620;4.920;2023-06-22T13:34:12;5.40;;;3.83;;
59734;SDS011;64362;45.620;4.920;2023-06-22T13:36:38;6.80;;;3.70;;
59734;SDS011;64362;45.620;4.920;2023-06-22T13:39:03;5.10;;;3.50;;
59734;SDS011;64362;45.620;4.920;2023-06-22T13:41:29;6.20;;;3.78;;
59734;SDS011;64362;45.620;4.920;2023-06-22T13:43:54;5.13;;;3.70;;
59734;SDS011;64362;45.620;4.920;2023-06-22T13:46:20;6.70;;;3.88;;
59734;SDS011;64362;45.620;4.920;2023-06-22T13:48:45;7.35;;;3.83;;
59734;SDS011;64362;45.620;4.920;2023-06-22T13:51:11;7.82;;;4.10;;
59734;SDS011;64362;45.620;4.920;2023-06-22T13:53:36;6.25;;;3.50;;
59734;SDS011;64362;45.620;4.920;2023-06-22T13:56:02;6.95;;;4.50;;
59734;SDS011;64362;45.620;4.920;2023-06-22T13:58:27;5.53;;;3.90;;
59734;SDS011;64362;45.620;4.920;2023-06-22T14:00:53;6.43;;;3.95;;
59734;SDS011;64362;45.620;4.920;2023-06-22T14:03:18;7.50;;;4.10;;
59734;SDS011;64362;45.620;4.920;2023-06-22T14:05:44;6.90;;;4.10;;
59734;SDS011;64362;45.620;4.920;2023-06-22T14:08:09;5.65;;;3.70;;
59734;SDS011;64362;45.620;4.920;2023-06-22T14:10:35;6.63;;;3.60;;
59734;SDS011;64362;45.620;4.920;2023-06-22T14:13:00;7.45;;;3.90;;
59734;SDS011;64362;45.620;4.920;2023-06-22T14:15:25;5.13;;;3.72;;
59734;SDS011;64362;45.620;4.920;2023-06-22T14:17:51;6.43;;;3.75;;
59734;SDS011;64362;45.620;4.920;2023-06-22T14:20:17;5.47;;;4.03;;
59734;SDS011;64362;45.620;4.920;2023-06-22T14:22:43;8.13;;;4.13;;
59734;SDS011;64362;45.620;4.920;2023-06-22T14:25:08;6.95;;;4.00;;
59734;SDS011;64362;45.620;4.920;2023-06-22T14:27:34;4.85;;;3.00;;
59734;SDS011;64362;45.620;4.920;2023-06-22T14:29:59;5.95;;;3.08;;
59734;SDS011;64362;45.620;4.920;2023-06-22T14:32:27;6.30;;;4.13;;
59734;SDS011;64362;45.620;4.920;2023-06-22T14:34:54;5.78;;;3.25;;
59734;SDS011;64362;45.620;4.920;2023-06-22T14:37:20;5.93;;;2.92;;
59734;SDS011;64362;45.620;4.920;2023-06-22T14:39:45;6.25;;;3.35;;
59734;SDS011;64362;45.620;4.920;2023-06-22T14:42:11;7.57;;;3.47;;
59734;SDS011;64362;45.620;4.920;2023-06-22T14:44:36;5.68;;;3.40;;
59734;SDS011;64362;45.620;4.920;2023-06-22T14:47:02;5.38;;;3.38;;
59734;SDS011;64362;45.620;4.920;2023-06-22T14:49:27;4.65;;;2.97;;
59734;SDS011;64362;45.620;4.920;2023-06-22T14:51:53;6.18;;;3.20;;
59734;SDS011;64362;45.620;4.920;2023-06-22T14:54:18;5.38;;;2.97;;
59734;SDS011;64362;45.620;4.920;2023-06-22T14:56:44;5.85;;;3.28;;
59734;SDS011;64362;45.620;4.920;2023-06-22T14:59:09;6.80;;;3.20;;
59734;SDS011;64362;45.620;4.920;2023-06-22T15:01:35;5.45;;;3.00;;
59734;SDS011;64362;45.620;4.920;2023-06-22T15:04:00;4.13;;;2.20;;
59734;SDS011;64362;45.620;4.920;2023-06-22T15:06:26;5.07;;;2.75;;
59734;SDS011;64362;45.620;4.920;2023-06-22T15:08:52;4.40;;;2.75;;